Aviation Digital Data Service (ADDS)

Output produced by METARs form (0720 UTC 24 March 2019)
found at http://www.aviationweather.gov/metar/data/
 
KALN 240715Z AUTO 07004KT 5SM BR CLR 05/05 A3014 RMK AO2 T00520052
KBLV 240456Z AUTO 00000KT 10SM SCT065 09/07 A3020 RMK AO2 RAE18DZB18E19RAB19E32DZB32E33 SLP231 P0001 T00860074 $
TAF KBLV 240000Z 2400/2506 13009KT 9999 SCT100 QNH3003INS 
     BECMG 2412/2413 17009KT 8000 -SHRA BKN018 OVC025 QNH3004INS 
     BECMG 2414/2415 19012KT 9999 NSW BKN008 OVC020 QNH2991INS 
     BECMG 2420/2421 19009KT 9999 SCT020 BKN025 QNH2989INS 
     BECMG 2422/2423 VRB06KT 6000 -SHRA BKN008 OVC010 QNH2987INS TX17/2421Z
TN08/2411Z
       
KBMI 240656Z AUTO 21009KT 10SM -RA SCT050 OVC065 06/04 A3018 RMK AO2 RAB02 SLP222 P0000 T00610044
KBMI 240529Z 2406/2506 17009KT P6SM VCSH BKN100 
     FM241100 15007KT 6SM -SHRA OVC040 
     FM241300 14008KT 6SM -SHRA OVC025 
     FM241600 15009KT P6SM VCSH OVC015 
     FM242000 14006KT P6SM VCTS OVC011CB 
     FM250300 06006KT 6SM -SHRA OVC008
       
KCPS 240653Z AUTO 08005KT 10SM FEW090 BKN100 08/06 A3014 RMK AO2 SLP206 T00830056 $
KCPS 240520Z 2406/2506 15008KT P6SM VCSH OVC060 
     TEMPO 2406/2409 6SM -SHRA 
     FM241200 14009KT P6SM BKN030 
     FM242100 19006KT P6SM VCTS BKN035CB 
     FM250000 VRB04KT P6SM VCSH BKN040
       
KCIR 240715Z AUTO 11003KT 7SM OVC090 12/02 A3017 RMK AO2 T01160018
KMDH 240652Z 00000KT 10SM -RA BKN080 BKN090 OVC110 09/05 A3018 RMK AO2 RAE22B46 SLP219 P0001 T00890050
KCUL 240716Z AUTO 12003KT 5SM HZ OVC110 07/04 A3019 RMK AO2
KENL 240715Z AUTO 10005KT 10SM BKN080 OVC085 10/04 A3015 RMK AO2 T00950037
KCMI 240653Z AUTO 17007KT 10SM -RA OVC060 06/03 A3020 RMK AO2 RAB01 SLP229 P0000 T00610028
KCMI 240529Z 2406/2506 15006KT P6SM VCSH BKN100 
     FM241200 13006KT 6SM -SHRA OVC050 
     FM241500 14009KT 4SM -SHRA OVC025 
     FM241700 15009KT 4SM -SHRA OVC015 
     FM242100 16006KT 6SM -SHRA VCTS OVC015CB 
     FM250100 08006KT 6SM -SHRA VCTS OVC015CB 
     FM250400 04011KT 5SM -SHRA OVC009
       
KARR 240652Z AUTO 15005KT 10SM SCT120 05/M01 A3017 RMK AO2 SLP219 T00501006 TSNO
KPWK 240652Z AUTO 00000KT 10SM FEW120 06/M03 A3019 RMK AO2 SLP226 T00561028
KMDW 240653Z 19005KT 10SM BKN140 BKN200 07/M04 A3018 RMK AO2 SLP224 T00671044
KMDW 240601Z 2406/2512 18006KT P6SM SCT100 BKN200 
     FM241100 20005KT P6SM OVC050 
     FM241600 18006KT P6SM VCSH SCT020 OVC040 
     FM241900 16006KT 5SM -SHRA SCT010 OVC020 
     FM242200 04011G18KT 4SM -RA BR SCT007 OVC010 
     FM250300 03015G23KT 6SM BR OVC015 
     FM250900 03017G25KT P6SM SCT025 SCT060
       
KORD 240651Z 17005KT 10SM BKN120 OVC200 06/M03 A3017 RMK AO2 SLP219 T00611033
KORD 240544Z 2406/2512 18006KT P6SM SCT100 BKN200 
     FM241100 20005KT P6SM OVC050 
     FM241600 18007KT P6SM VCSH SCT020 OVC040 
     FM241900 16006KT 5SM -SHRA SCT010 OVC020 
     FM242200 04013G20KT 4SM -RA BR SCT007 OVC010 
     FM250300 03015G21KT 6SM BR OVC015 
     FM250900 03017G24KT P6SM SCT060
       
KDPA 240652Z 17005KT 10SM SCT120 06/M02 A3016 RMK AO2 SLP218 T00561017
KDPA 240602Z 2406/2506 18006KT P6SM SCT100 BKN200 
     FM241100 20005KT P6SM OVC050 
     FM241600 18007KT P6SM VCSH SCT020 OVC040 
     FM241900 16006KT 5SM -SHRA SCT010 OVC020 
     FM242200 05012KT 5SM -SHRA BR SCT007 OVC010 
     FM250300 03015G22KT P6SM OVC020
       
KIGQ 240715Z AUTO 00000KT 10SM CLR 04/M02 A3019 RMK AO2 T00401022
K06C 240715Z AUTO 20004KT 10SM BKN120 06/M04 A3016 RMK AO2 T00601039
KUGN 240655Z AUTO 00000KT 10SM CLR 03/M03 A3017 RMK AO2 SLP223 T00281033 $
KLOT 240655Z AUTO 17005KT 10SM CLR 05/M01 A3018 RMK AO2 T00471015
KDNV 240715Z AUTO 00000KT 10SM -RA BKN060 OVC075 05/M01 A3018 RMK AO2 T00541007
KDEC 240654Z AUTO 12003KT 10SM OVC050 07/03 A3017 RMK AO2 RAB01E42 SLP219 P0001 T00720033
KDEC 240529Z 2406/2506 17007KT P6SM VCSH OVC090 
     FM241200 14007KT 6SM -SHRA OVC045 
     FM241500 15009KT P6SM VCSH OVC025 
     FM241700 16009KT P6SM VCSH OVC015 
     FM242100 17005KT 6SM -SHRA VCTS BKN025CB 
     FM250400 06007KT 5SM -SHRA OVC015
       
KDKB 240715Z AUTO 18006KT 10SM SCT120 03/00 A3017 RMK AO2 T00320002
K1H2 240655Z AUTO 09006KT 10SM OVC090 08/02 A3019 RMK AO2 T00840016
KFWC 240715Z AUTO 14003KT 10SM -RA SCT070 BKN080 OVC110 09/01 A3018 RMK AO1 T00940014
KFOA 240715Z AUTO 12003KT 10SM CLR 07/04 A3019 RMK AO2 T00700035
KFEP 240715Z AUTO 18004KT 10SM OVC090 04/00 A3017 RMK AO2 T00400000
KGBG 240715Z AUTO 12003KT 10SM BKN055 OVC065 07/03 A3015 RMK AO2 T00670027
KHSB 240715Z AUTO 00000KT 10SM BKN120 09/05 A3019 RMK AO2 T00920046
KIJX 240655Z AUTO 17004KT 10SM OVC046 08/06 A3015 RMK AO2 T00780060
KIKK 240715Z AUTO 00000KT 10SM OVC110 04/M01 A3020 RMK AO2 T00431015
KC75 240715Z AUTO 21003KT 10SM SCT065 OVC085 09/02 A3016 RMK AO2 T00860016
KLWV 240653Z AUTO 14004KT 10SM BKN120 07/03 A3022 RMK AO2 SLP233 T00720028
KAAA 240715Z AUTO 00000KT 7SM SCT042 OVC050 07/07 A3017 RMK AO2 T00710066
K3LF 240715Z AUTO 10003KT 10SM SCT060 06/05 A3016 RMK AO2 T00630051
KMQB 240715Z AUTO 16007KT 10SM -RA OVC043 07/06 A3016 RMK AO2 T00730058
KMWA 240715Z AUTO 00000KT 10SM -RA BKN080 OVC100 09/03 A3018 RMK AO2 T00910028
KM30 240655Z AUTO 00000KT 10SM OVC110 06/M02 A3018 RMK AO2 T00571022
KMLI 240652Z AUTO 09003KT 10SM BKN060 OVC070 07/03 A3013 RMK AO2 RAB21E45 SLP204 P0000 T00720033
KMLI 240520Z 2406/2506 12005KT P6SM OVC090 
     FM240700 13005KT 6SM -SHRA BKN035 OVC050 
     FM241100 09005KT 3SM -SHRA BR BKN007 OVC020 
     FM242000 04009KT 5SM -SHRA BR SCT009 OVC015 
     FM250300 04013KT 6SM BR OVC020
       
KC09 240655Z AUTO 16004KT 10SM SCT120 05/M01 A3018 RMK AO2 T00501010
KAJG 240715Z AUTO 11004KT 10SM BKN120 07/04 A3020 RMK AO2 T00710040
KI63 240655Z AUTO 14006KT 10SM BKN037 BKN050 OVC065 08/06 A3012 RMK AO2 T00800059
KMVN 240656Z AUTO 00000KT 10SM -RA BKN075 OVC090 10/01 A3018 RMK AO2 RAB55 SLP219 P0000 T01000011
KMVN 240520Z 2406/2506 VRB04KT P6SM VCSH OVC080 
     FM241700 19010G18KT P6SM OVC028 
     FM242000 20009KT P6SM VCSH BKN030 
     FM250200 18006KT 5SM SHRA BR OVC018
       
KOLY 240655Z AUTO 07003KT 10SM BKN110 07/02 A3021 RMK AO2 T00730023
KPRG 240715Z AUTO 12003KT 10SM OVC110 08/00 A3020 RMK AO2 T00750001
KPIA 240654Z 19006KT 10SM -RA OVC060 08/04 A3017 RMK AO2 RAB05 SLP218 P0000 T00780044
KPIA 240529Z 2406/2506 16007KT P6SM VCSH OVC100 
     FM241000 14006KT 6SM -SHRA OVC025 
     FM241300 14007KT 6SM -SHRA OVC015 
     FM241600 14008KT P6SM VCSH OVC012 
     FM242000 11005KT 6SM -SHRA VCTS OVC012CB 
     FM250200 05012KT P6SM -SHRA OVC008
       
KVYS 240655Z AUTO 17006KT 10SM BKN070 OVC085 07/00 A3017 RMK AO2 T00661005
KPPQ 240715Z AUTO 12005KT 10SM SCT080 OVC100 09/07 A3012 RMK AO2 T00860070
KPNT 240715Z AUTO 00000KT 10SM BKN110 06/02 A3019 RMK AO2 T00570016
KUIN 240654Z AUTO 15007KT 10SM -RA 09/06 A3011 RMK AO2 RAE05B44 SLP195 P0000 T00940061 $
KUIN 240520Z 2406/2506 15008KT P6SM VCSH OVC050 
     FM241100 15009KT P6SM BKN020 
     FM242100 VRB04KT P6SM VCTS BKN025CB 
     FM250000 03009KT P6SM VCSH BKN020
       
KTIP 240655Z AUTO 00000KT 7SM RA SCT039 OVC050 05/02 A3020 RMK AO2 T00520021
KRSV 240715Z AUTO 00000KT 10SM OVC120 05/03 A3022 RMK AO2 T00520027
KRPJ 240715Z AUTO 15006KT 10SM OVC110 04/01 A3017 RMK AO2 T00400010
KRFD 240654Z 17004KT 10SM OVC130 05/M01 A3017 RMK AO2 SLP222 T00501006
KRFD 240544Z 2406/2506 16006KT P6SM BKN100 OVC200 
     FM241100 15005KT P6SM VCSH SCT025 OVC040 
     FM241400 12007KT 4SM -SHRA BR SCT010 OVC020 
     FM242000 09007KT 5SM -SHRA BR SCT009 OVC015 
     FM242300 05011G18KT 6SM -SHRA BR OVC015
       
KSLO 240715Z AUTO 13004KT 10SM BKN075 OVC090 11/00 A3017 RMK AO2 T01070004
KSFY 240656Z AUTO 00000KT 10SM OVC100 06/01 A3015 RMK AO2
KSAR 240715Z AUTO 00000KT 10SM SCT075 OVC095 10/06 A3016 RMK AO2 T00950058
KSPI 240652Z AUTO 17005KT 10SM OVC050 08/07 A3017 RMK AO2 SLP216 T00780067
KSPI 240529Z 2406/2506 17013KT P6SM VCSH BKN090 
     FM240800 16011KT 6SM -SHRA OVC050 
     FM241400 15009KT P6SM VCSH OVC025 
     FM241600 16009KT P6SM VCSH OVC015 
     FM241900 18007KT 6SM -SHRA VCTS BKN025CB 
     FM250200 05008KT 6SM -SHRA OVC015
       
KSQI 240656Z AUTO 09003KT 10SM SCT095 06/02 A3016 RMK AO2 SLP236 T00560017
KTAZ 240655Z AUTO 00000KT 10SM OVC050 07/06 A3018 RMK AO2 T00660056